sensor_id;sensor_type;location;lat;lon;timestamp;P1;durP1;ratioP1;P2;durP2;ratioP2
20824;SDS011;10573;50.936;6.978;2024-02-21T00:01:55;15.40;;;5.47;;
20824;SDS011;10573;50.936;6.978;2024-02-21T00:04:21;15.23;;;5.37;;
20824;SDS011;10573;50.936;6.978;2024-02-21T00:06:48;14.13;;;5.33;;
20824;SDS011;10573;50.936;6.978;2024-02-21T00:09:13;16.60;;;5.40;;
20824;SDS011;10573;50.936;6.978;2024-02-21T00:11:39;16.08;;;5.60;;
20824;SDS011;10573;50.936;6.978;2024-02-21T00:14:04;20.80;;;6.03;;
20824;SDS011;10573;50.936;6.978;2024-02-21T00:16:29;15.05;;;5.22;;
20824;SDS011;10573;50.936;6.978;2024-02-21T00:18:55;12.27;;;5.50;;
20824;SDS011;10573;50.936;6.978;2024-02-21T00:21:20;13.50;;;5.28;;
20824;SDS011;10573;50.936;6.978;2024-02-21T00:23:45;15.23;;;5.43;;
20824;SDS011;10573;50.936;6.978;2024-02-21T00:26:14;17.58;;;6.10;;
20824;SDS011;10573;50.936;6.978;2024-02-21T00:28:40;16.15;;;6.13;;
20824;SDS011;10573;50.936;6.978;2024-02-21T00:31:05;14.80;;;5.63;;
20824;SDS011;10573;50.936;6.978;2024-02-21T00:33:30;16.77;;;5.95;;
20824;SDS011;10573;50.936;6.978;2024-02-21T00:35:56;13.93;;;5.83;;
20824;SDS011;10573;50.936;6.978;2024-02-21T00:38:21;14.23;;;5.67;;
20824;SDS011;10573;50.936;6.978;2024-02-21T00:40:47;17.80;;;5.90;;
20824;SDS011;10573;50.936;6.978;2024-02-21T00:43:12;15.57;;;6.00;;
20824;SDS011;10573;50.936;6.978;2024-02-21T00:45:37;15.75;;;5.72;;
20824;SDS011;10573;50.936;6.978;2024-02-21T00:48:03;16.07;;;6.07;;
20824;SDS011;10573;50.936;6.978;2024-02-21T00:50:29;15.60;;;5.73;;
20824;SDS011;10573;50.936;6.978;2024-02-21T00:52:54;16.30;;;5.97;;
20824;SDS011;10573;50.936;6.978;2024-02-21T00:55:20;13.43;;;6.10;;
20824;SDS011;10573;50.936;6.978;2024-02-21T00:57:45;13.10;;;5.63;;
20824;SDS011;10573;50.936;6.978;2024-02-21T01:00:11;16.23;;;5.80;;
20824;SDS011;10573;50.936;6.978;2024-02-21T01:02:37;14.90;;;5.90;;
20824;SDS011;10573;50.936;6.978;2024-02-21T01:05:02;16.63;;;5.87;;
20824;SDS011;10573;50.936;6.978;2024-02-21T01:07:28;15.95;;;6.00;;
20824;SDS011;10573;50.936;6.978;2024-02-21T01:09:53;15.50;;;5.90;;
20824;SDS011;10573;50.936;6.978;2024-02-21T01:12:19;17.90;;;6.63;;
20824;SDS011;10573;50.936;6.978;2024-02-21T01:14:44;14.67;;;5.70;;
20824;SDS011;10573;50.936;6.978;2024-02-21T01:17:11;17.58;;;5.82;;
20824;SDS011;10573;50.936;6.978;2024-02-21T01:19:37;15.33;;;5.97;;
20824;SDS011;10573;50.936;6.978;2024-02-21T01:22:02;12.30;;;5.30;;
20824;SDS011;10573;50.936;6.978;2024-02-21T01:24:28;15.40;;;5.60;;
20824;SDS011;10573;50.936;6.978;2024-02-21T01:26:53;13.40;;;5.37;;
20824;SDS011;10573;50.936;6.978;2024-02-21T01:29:18;15.05;;;5.40;;
20824;SDS011;10573;50.936;6.978;2024-02-21T01:31:44;14.57;;;5.30;;
20824;SDS011;10573;50.936;6.978;2024-02-21T01:34:09;13.05;;;5.65;;
20824;SDS011;10573;50.936;6.978;2024-02-21T01:36:34;14.27;;;5.17;;
20824;SDS011;10573;50.936;6.978;2024-02-21T01:39:00;13.85;;;5.22;;
20824;SDS011;10573;50.936;6.978;2024-02-21T01:41:25;13.10;;;5.73;;
20824;SDS011;10573;50.936;6.978;2024-02-21T01:43:51;15.10;;;5.50;;
20824;SDS011;10573;50.936;6.978;2024-02-21T01:46:16;13.10;;;5.68;;
20824;SDS011;10573;50.936;6.978;2024-02-21T01:48:44;14.13;;;5.67;;
20824;SDS011;10573;50.936;6.978;2024-02-21T01:51:11;13.95;;;6.00;;
20824;SDS011;10573;50.936;6.978;2024-02-21T01:53:39;16.00;;;6.17;;
20824;SDS011;10573;50.936;6.978;2024-02-21T01:56:09;13.70;;;5.78;;
20824;SDS011;10573;50.936;6.978;2024-02-21T01:58:35;18.27;;;6.05;;
20824;SDS011;10573;50.936;6.978;2024-02-21T02:01:02;16.30;;;5.80;;
20824;SDS011;10573;50.936;6.978;2024-02-21T02:03:28;18.98;;;6.22;;
20824;SDS011;10573;50.936;6.978;2024-02-21T02:05:55;18.38;;;6.50;;
20824;SDS011;10573;50.936;6.978;2024-02-21T02:08:20;17.80;;;5.97;;
20824;SDS011;10573;50.936;6.978;2024-02-21T02:10:49;17.13;;;6.15;;
20824;SDS011;10573;50.936;6.978;2024-02-21T02:13:14;18.07;;;6.50;;
20824;SDS011;10573;50.936;6.978;2024-02-21T02:18:06;16.30;;;6.10;;
20824;SDS011;10573;50.936;6.978;2024-02-21T02:20:32;16.20;;;6.30;;
20824;SDS011;10573;50.936;6.978;2024-02-21T02:22:59;17.03;;;6.17;;
20824;SDS011;10573;50.936;6.978;2024-02-21T02:25:25;17.80;;;6.25;;
20824;SDS011;10573;50.936;6.978;2024-02-21T02:27:51;16.77;;;5.97;;
20824;SDS011;10573;50.936;6.978;2024-02-21T02:30:17;18.17;;;6.28;;
20824;SDS011;10573;50.936;6.978;2024-02-21T02:32:45;15.43;;;6.30;;
20824;SDS011;10573;50.936;6.978;2024-02-21T02:35:31;18.45;;;5.85;;
20824;SDS011;10573;50.936;6.978;2024-02-21T02:37:56;17.88;;;6.05;;
20824;SDS011;10573;50.936;6.978;2024-02-21T02:40:22;14.90;;;6.10;;
20824;SDS011;10573;50.936;6.978;2024-02-21T02:42:48;14.57;;;5.75;;
20824;SDS011;10573;50.936;6.978;2024-02-21T02:45:17;14.30;;;5.50;;
20824;SDS011;10573;50.936;6.978;2024-02-21T02:47:46;15.88;;;5.90;;
20824;SDS011;10573;50.936;6.978;2024-02-21T02:50:12;16.87;;;5.90;;
20824;SDS011;10573;50.936;6.978;2024-02-21T02:52:38;16.27;;;5.68;;
20824;SDS011;10573;50.936;6.978;2024-02-21T02:55:04;16.93;;;5.60;;
20824;SDS011;10573;50.936;6.978;2024-02-21T02:57:30;11.68;;;5.15;;
20824;SDS011;10573;50.936;6.978;2024-02-21T02:59:55;17.23;;;6.25;;
20824;SDS011;10573;50.936;6.978;2024-02-21T03:02:21;15.00;;;5.93;;
20824;SDS011;10573;50.936;6.978;2024-02-21T03:04:46;17.23;;;6.23;;
20824;SDS011;10573;50.936;6.978;2024-02-21T03:07:11;16.37;;;5.60;;
20824;SDS011;10573;50.936;6.978;2024-02-21T03:09:39;17.27;;;6.00;;
20824;SDS011;10573;50.936;6.978;2024-02-21T03:12:05;17.83;;;5.43;;
20824;SDS011;10573;50.936;6.978;2024-02-21T03:14:34;13.53;;;5.57;;
20824;SDS011;10573;50.936;6.978;2024-02-21T03:17:00;15.07;;;5.57;;
20824;SDS011;10573;50.936;6.978;2024-02-21T03:19:27;18.87;;;5.73;;
20824;SDS011;10573;50.936;6.978;2024-02-21T03:21:53;15.65;;;5.43;;
20824;SDS011;10573;50.936;6.978;2024-02-21T03:24:18;15.33;;;5.67;;
20824;SDS011;10573;50.936;6.978;2024-02-21T03:26:45;16.60;;;6.07;;
20824;SDS011;10573;50.936;6.978;2024-02-21T03:29:12;14.30;;;5.38;;
20824;SDS011;10573;50.936;6.978;2024-02-21T03:31:37;13.63;;;5.10;;
20824;SDS011;10573;50.936;6.978;2024-02-21T03:34:03;16.25;;;5.65;;
20824;SDS011;10573;50.936;6.978;2024-02-21T03:36:28;16.10;;;5.33;;
20824;SDS011;10573;50.936;6.978;2024-02-21T03:38:54;18.48;;;5.90;;
20824;SDS011;10573;50.936;6.978;2024-02-21T03:41:20;15.30;;;5.30;;
20824;SDS011;10573;50.936;6.978;2024-02-21T03:43:46;15.00;;;5.63;;
20824;SDS011;10573;50.936;6.978;2024-02-21T03:46:11;14.67;;;6.00;;
20824;SDS011;10573;50.936;6.978;2024-02-21T03:48:37;12.20;;;5.30;;
20824;SDS011;10573;50.936;6.978;2024-02-21T03:51:02;15.30;;;5.37;;
20824;SDS011;10573;50.936;6.978;2024-02-21T03:53:28;17.80;;;6.13;;
20824;SDS011;10573;50.936;6.978;2024-02-21T03:55:54;19.98;;;5.68;;
20824;SDS011;10573;50.936;6.978;2024-02-21T03:58:19;13.60;;;5.47;;
20824;SDS011;10573;50.936;6.978;2024-02-21T04:00:45;14.15;;;5.28;;
20824;SDS011;10573;50.936;6.978;2024-02-21T04:03:11;14.50;;;4.97;;
20824;SDS011;10573;50.936;6.978;2024-02-21T04:05:36;15.20;;;5.13;;
20824;SDS011;10573;50.936;6.978;2024-02-21T04:08:05;13.37;;;5.10;;
20824;SDS011;10573;50.936;6.978;2024-02-21T04:10:31;15.18;;;5.28;;
20824;SDS011;10573;50.936;6.978;2024-02-21T04:12:56;14.52;;;5.00;;
20824;SDS011;10573;50.936;6.978;2024-02-21T04:15:21;14.53;;;5.43;;
20824;SDS011;10573;50.936;6.978;2024-02-21T04:17:47;13.20;;;4.70;;
20824;SDS011;10573;50.936;6.978;2024-02-21T04:20:13;14.30;;;5.22;;
20824;SDS011;10573;50.936;6.978;2024-02-21T04:22:41;12.52;;;5.10;;
20824;SDS011;10573;50.936;6.978;2024-02-21T04:25:08;15.90;;;4.88;;
20824;SDS011;10573;50.936;6.978;2024-02-21T04:27:39;13.40;;;5.10;;
20824;SDS011;10573;50.936;6.978;2024-02-21T04:30:05;11.95;;;4.68;;
20824;SDS011;10573;50.936;6.978;2024-02-21T04:32:32;10.30;;;4.82;;
20824;SDS011;10573;50.936;6.978;2024-02-21T04:34:57;12.77;;;4.90;;
20824;SDS011;10573;50.936;6.978;2024-02-21T04:37:23;13.23;;;5.00;;
20824;SDS011;10573;50.936;6.978;2024-02-21T04:39:48;15.52;;;4.78;;
20824;SDS011;10573;50.936;6.978;2024-02-21T04:42:14;14.57;;;4.95;;
20824;SDS011;10573;50.936;6.978;2024-02-21T04:44:40;13.30;;;5.00;;
20824;SDS011;10573;50.936;6.978;2024-02-21T04:47:06;12.93;;;5.10;;
20824;SDS011;10573;50.936;6.978;2024-02-21T04:49:32;12.32;;;5.03;;
20824;SDS011;10573;50.936;6.978;2024-02-21T04:51:57;14.15;;;5.20;;
20824;SDS011;10573;50.936;6.978;2024-02-21T04:54:23;12.13;;;5.00;;
20824;SDS011;10573;50.936;6.978;2024-02-21T04:56:48;14.88;;;5.03;;
20824;SDS011;10573;50.936;6.978;2024-02-21T04:59:13;11.57;;;4.33;;
20824;SDS011;10573;50.936;6.978;2024-02-21T05:01:39;11.97;;;4.83;;
20824;SDS011;10573;50.936;6.978;2024-02-21T05:04:04;9.93;;;4.80;;
20824;SDS011;10573;50.936;6.978;2024-02-21T05:06:29;12.60;;;4.70;;
20824;SDS011;10573;50.936;6.978;2024-02-21T05:08:55;13.63;;;4.80;;
20824;SDS011;10573;50.936;6.978;2024-02-21T05:11:21;12.97;;;4.60;;
20824;SDS011;10573;50.936;6.978;2024-02-21T05:13:46;15.43;;;5.07;;
20824;SDS011;10573;50.936;6.978;2024-02-21T05:16:12;12.73;;;4.43;;
20824;SDS011;10573;50.936;6.978;2024-02-21T05:18:37;15.30;;;4.78;;
20824;SDS011;10573;50.936;6.978;2024-02-21T05:21:03;15.70;;;4.47;;
20824;SDS011;10573;50.936;6.978;2024-02-21T05:23:28;13.50;;;4.67;;
20824;SDS011;10573;50.936;6.978;2024-02-21T05:25:55;12.38;;;4.80;;
20824;SDS011;10573;50.936;6.978;2024-02-21T05:28:20;14.57;;;4.90;;
20824;SDS011;10573;50.936;6.978;2024-02-21T05:30:46;14.03;;;4.97;;
20824;SDS011;10573;50.936;6.978;2024-02-21T05:33:11;13.43;;;4.67;;
20824;SDS011;10573;50.936;6.978;2024-02-21T05:35:37;14.10;;;5.00;;
20824;SDS011;10573;50.936;6.978;2024-02-21T05:38:03;14.20;;;4.93;;
20824;SDS011;10573;50.936;6.978;2024-02-21T05:40:36;14.25;;;5.25;;
20824;SDS011;10573;50.936;6.978;2024-02-21T05:43:01;14.23;;;4.83;;
20824;SDS011;10573;50.936;6.978;2024-02-21T05:45:27;11.03;;;4.80;;
20824;SDS011;10573;50.936;6.978;2024-02-21T05:47:52;10.32;;;4.57;;
20824;SDS011;10573;50.936;6.978;2024-02-21T05:50:18;15.50;;;4.73;;
20824;SDS011;10573;50.936;6.978;2024-02-21T05:52:43;12.90;;;4.80;;
20824;SDS011;10573;50.936;6.978;2024-02-21T05:55:09;10.85;;;4.50;;
20824;SDS011;10573;50.936;6.978;2024-02-21T05:57:34;11.67;;;4.73;;
20824;SDS011;10573;50.936;6.978;2024-02-21T06:00:00;14.23;;;4.77;;
20824;SDS011;10573;50.936;6.978;2024-02-21T06:02:28;12.07;;;4.82;;
20824;SDS011;10573;50.936;6.978;2024-02-21T06:04:53;14.53;;;4.87;;
20824;SDS011;10573;50.936;6.978;2024-02-21T06:07:18;11.80;;;5.03;;
20824;SDS011;10573;50.936;6.978;2024-02-21T06:09:44;18.83;;;5.00;;
20824;SDS011;10573;50.936;6.978;2024-02-21T06:12:10;10.40;;;4.23;;
20824;SDS011;10573;50.936;6.978;2024-02-21T06:14:36;14.57;;;4.75;;
20824;SDS011;10573;50.936;6.978;2024-02-21T06:17:02;10.80;;;4.43;;
20824;SDS011;10573;50.936;6.978;2024-02-21T06:19:27;12.75;;;4.60;;
20824;SDS011;10573;50.936;6.978;2024-02-21T06:21:53;11.88;;;4.20;;
20824;SDS011;10573;50.936;6.978;2024-02-21T06:24:18;10.47;;;3.87;;
20824;SDS011;10573;50.936;6.978;2024-02-21T06:26:44;11.63;;;4.10;;
20824;SDS011;10573;50.936;6.978;2024-02-21T06:29:10;11.75;;;4.05;;
20824;SDS011;10573;50.936;6.978;2024-02-21T06:31:36;12.03;;;4.50;;
20824;SDS011;10573;50.936;6.978;2024-02-21T06:34:02;10.73;;;4.27;;
20824;SDS011;10573;50.936;6.978;2024-02-21T06:36:27;14.93;;;4.45;;
20824;SDS011;10573;50.936;6.978;2024-02-21T06:38:53;11.47;;;4.53;;
20824;SDS011;10573;50.936;6.978;2024-02-21T06:41:19;12.65;;;4.03;;
20824;SDS011;10573;50.936;6.978;2024-02-21T06:43:45;12.43;;;4.32;;
20824;SDS011;10573;50.936;6.978;2024-02-21T06:46:11;12.07;;;4.38;;
20824;SDS011;10573;50.936;6.978;2024-02-21T06:48:37;11.05;;;4.10;;
20824;SDS011;10573;50.936;6.978;2024-02-21T06:51:02;9.25;;;3.92;;
20824;SDS011;10573;50.936;6.978;2024-02-21T06:53:29;11.68;;;4.38;;
20824;SDS011;10573;50.936;6.978;2024-02-21T06:55:54;10.43;;;3.60;;
20824;SDS011;10573;50.936;6.978;2024-02-21T06:58:19;9.67;;;3.60;;
20824;SDS011;10573;50.936;6.978;2024-02-21T07:00:45;12.50;;;3.57;;
20824;SDS011;10573;50.936;6.978;2024-02-21T07:03:10;11.38;;;4.03;;
20824;SDS011;10573;50.936;6.978;2024-02-21T07:05:36;11.83;;;3.37;;
20824;SDS011;10573;50.936;6.978;2024-02-21T07:08:01;11.38;;;3.53;;
20824;SDS011;10573;50.936;6.978;2024-02-21T07:10:28;9.05;;;3.55;;
20824;SDS011;10573;50.936;6.978;2024-02-21T07:12:57;12.25;;;3.92;;
20824;SDS011;10573;50.936;6.978;2024-02-21T07:15:22;10.80;;;3.88;;
20824;SDS011;10573;50.936;6.978;2024-02-21T07:17:51;13.77;;;4.07;;
20824;SDS011;10573;50.936;6.978;2024-02-21T07:20:18;10.45;;;3.65;;
20824;SDS011;10573;50.936;6.978;2024-02-21T07:22:43;11.60;;;3.97;;
20824;SDS011;10573;50.936;6.978;2024-02-21T07:25:11;8.18;;;3.70;;
20824;SDS011;10573;50.936;6.978;2024-02-21T07:27:36;10.87;;;3.80;;
20824;SDS011;10573;50.936;6.978;2024-02-21T07:30:02;7.90;;;3.23;;
20824;SDS011;10573;50.936;6.978;2024-02-21T07:32:28;9.33;;;3.73;;
20824;SDS011;10573;50.936;6.978;2024-02-21T07:34:53;13.23;;;3.97;;
20824;SDS011;10573;50.936;6.978;2024-02-21T07:37:19;8.25;;;3.63;;
20824;SDS011;10573;50.936;6.978;2024-02-21T07:39:44;9.10;;;3.87;;
20824;SDS011;10573;50.936;6.978;2024-02-21T07:42:10;9.73;;;3.60;;
20824;SDS011;10573;50.936;6.978;2024-02-21T07:44:35;9.65;;;3.53;;
20824;SDS011;10573;50.936;6.978;2024-02-21T07:47:00;7.20;;;3.20;;
20824;SDS011;10573;50.936;6.978;2024-02-21T07:49:26;9.20;;;3.53;;
20824;SDS011;10573;50.936;6.978;2024-02-21T07:51:51;9.77;;;3.70;;
20824;SDS011;10573;50.936;6.978;2024-02-21T07:54:17;12.07;;;3.83;;
20824;SDS011;10573;50.936;6.978;2024-02-21T07:56:43;7.97;;;3.70;;
20824;SDS011;10573;50.936;6.978;2024-02-21T07:59:08;11.57;;;3.97;;
20824;SDS011;10573;50.936;6.978;2024-02-21T08:01:37;10.47;;;3.60;;
20824;SDS011;10573;50.936;6.978;2024-02-21T08:04:02;8.70;;;3.80;;
20824;SDS011;10573;50.936;6.978;2024-02-21T08:06:29;11.52;;;3.92;;
20824;SDS011;10573;50.936;6.978;2024-02-21T08:08:55;15.50;;;4.47;;
20824;SDS011;10573;50.936;6.978;2024-02-21T08:11:22;8.00;;;3.80;;
20824;SDS011;10573;50.936;6.978;2024-02-21T08:13:47;11.67;;;4.13;;
20824;SDS011;10573;50.936;6.978;2024-02-21T08:16:13;9.80;;;4.10;;
20824;SDS011;10573;50.936;6.978;2024-02-21T08:18:38;12.73;;;4.00;;
20824;SDS011;10573;50.936;6.978;2024-02-21T08:21:04;12.60;;;4.28;;
20824;SDS011;10573;50.936;6.978;2024-02-21T08:23:29;9.73;;;4.00;;
20824;SDS011;10573;50.936;6.978;2024-02-21T08:25:55;10.83;;;3.80;;
20824;SDS011;10573;50.936;6.978;2024-02-21T08:28:20;12.77;;;4.60;;
20824;SDS011;10573;50.936;6.978;2024-02-21T08:30:46;11.00;;;4.10;;
20824;SDS011;10573;50.936;6.978;2024-02-21T08:33:14;10.55;;;4.07;;
20824;SDS011;10573;50.936;6.978;2024-02-21T08:35:40;12.27;;;4.38;;
20824;SDS011;10573;50.936;6.978;2024-02-21T08:38:05;12.05;;;4.35;;
20824;SDS011;10573;50.936;6.978;2024-02-21T08:40:31;15.43;;;4.17;;
20824;SDS011;10573;50.936;6.978;2024-02-21T08:42:56;16.40;;;4.87;;
20824;SDS011;10573;50.936;6.978;2024-02-21T08:45:22;11.68;;;4.28;;
20824;SDS011;10573;50.936;6.978;2024-02-21T08:47:47;12.93;;;4.67;;
20824;SDS011;10573;50.936;6.978;2024-02-21T08:50:14;12.65;;;4.47;;
20824;SDS011;10573;50.936;6.978;2024-02-21T08:52:39;11.10;;;4.73;;
20824;SDS011;10573;50.936;6.978;2024-02-21T08:55:05;11.60;;;4.30;;
20824;SDS011;10573;50.936;6.978;2024-02-21T08:57:31;12.60;;;4.10;;
20824;SDS011;10573;50.936;6.978;2024-02-21T09:00:02;13.38;;;4.15;;
20824;SDS011;10573;50.936;6.978;2024-02-21T09:02:41;9.68;;;4.15;;
20824;SDS011;10573;50.936;6.978;2024-02-21T09:05:10;14.80;;;4.45;;
20824;SDS011;10573;50.936;6.978;2024-02-21T09:07:36;10.63;;;3.83;;
20824;SDS011;10573;50.936;6.978;2024-02-21T09:10:01;12.27;;;4.50;;
20824;SDS011;10573;50.936;6.978;2024-02-21T09:12:27;12.20;;;4.00;;
20824;SDS011;10573;50.936;6.978;2024-02-21T09:14:53;12.52;;;3.88;;
20824;SDS011;10573;50.936;6.978;2024-02-21T09:17:18;17.17;;;4.20;;
20824;SDS011;10573;50.936;6.978;2024-02-21T09:19:47;13.90;;;3.70;;
20824;SDS011;10573;50.936;6.978;2024-02-21T09:22:15;7.80;;;3.58;;
20824;SDS011;10573;50.936;6.978;2024-02-21T09:24:40;14.50;;;4.47;;
20824;SDS011;10573;50.936;6.978;2024-02-21T09:27:06;14.23;;;3.90;;
20824;SDS011;10573;50.936;6.978;2024-02-21T09:29:32;13.57;;;3.90;;
20824;SDS011;10573;50.936;6.978;2024-02-21T09:32:01;10.57;;;3.80;;
20824;SDS011;10573;50.936;6.978;2024-02-21T09:34:27;12.47;;;3.60;;
20824;SDS011;10573;50.936;6.978;2024-02-21T09:36:53;12.60;;;3.80;;
20824;SDS011;10573;50.936;6.978;2024-02-21T09:39:19;11.67;;;3.47;;
20824;SDS011;10573;50.936;6.978;2024-02-21T09:41:45;14.60;;;3.97;;
20824;SDS011;10573;50.936;6.978;2024-02-21T09:44:21;14.30;;;3.80;;
20824;SDS011;10573;50.936;6.978;2024-02-21T09:49:30;12.88;;;3.78;;
20824;SDS011;10573;50.936;6.978;2024-02-21T09:52:06;11.40;;;3.90;;
20824;SDS011;10573;50.936;6.978;2024-02-21T09:54:33;9.63;;;3.33;;
20824;SDS011;10573;50.936;6.978;2024-02-21T09:56:59;12.45;;;3.47;;
20824;SDS011;10573;50.936;6.978;2024-02-21T09:59:27;14.07;;;3.83;;
20824;SDS011;10573;50.936;6.978;2024-02-21T10:01:54;8.95;;;3.30;;
20824;SDS011;10573;50.936;6.978;2024-02-21T10:04:20;10.02;;;3.42;;
20824;SDS011;10573;50.936;6.978;2024-02-21T10:06:46;10.13;;;3.22;;
20824;SDS011;10573;50.936;6.978;2024-02-21T10:09:24;9.68;;;3.60;;
20824;SDS011;10573;50.936;6.978;2024-02-21T10:11:54;9.13;;;3.33;;
20824;SDS011;10573;50.936;6.978;2024-02-21T10:14:20;10.75;;;3.72;;
20824;SDS011;10573;50.936;6.978;2024-02-21T10:16:56;8.40;;;3.22;;
20824;SDS011;10573;50.936;6.978;2024-02-21T10:19:24;9.87;;;3.13;;
20824;SDS011;10573;50.936;6.978;2024-02-21T10:22:02;9.87;;;3.20;;
20824;SDS011;10573;50.936;6.978;2024-02-21T10:24:29;12.38;;;3.42;;
20824;SDS011;10573;50.936;6.978;2024-02-21T10:27:07;11.55;;;3.30;;
20824;SDS011;10573;50.936;6.978;2024-02-21T10:29:36;10.00;;;3.50;;
20824;SDS011;10573;50.936;6.978;2024-02-21T10:34:41;10.10;;;3.03;;
20824;SDS011;10573;50.936;6.978;2024-02-21T10:37:08;9.70;;;3.03;;
20824;SDS011;10573;50.936;6.978;2024-02-21T10:39:34;8.25;;;2.78;;
20824;SDS011;10573;50.936;6.978;2024-02-21T10:42:03;8.30;;;2.80;;
20824;SDS011;10573;50.936;6.978;2024-02-21T10:44:29;7.45;;;3.28;;
20824;SDS011;10573;50.936;6.978;2024-02-21T10:47:01;10.07;;;3.90;;
20824;SDS011;10573;50.936;6.978;2024-02-21T10:49:34;8.63;;;3.10;;
20824;SDS011;10573;50.936;6.978;2024-02-21T10:53:08;9.80;;;3.08;;
20824;SDS011;10573;50.936;6.978;2024-02-21T10:55:20;15.18;;;3.92;;
20824;SDS011;10573;50.936;6.978;2024-02-21T10:57:51;9.38;;;3.28;;
20824;SDS011;10573;50.936;6.978;2024-02-21T11:00:18;9.30;;;3.05;;
20824;SDS011;10573;50.936;6.978;2024-02-21T11:02:44;8.60;;;3.33;;
20824;SDS011;10573;50.936;6.978;2024-02-21T11:05:12;7.33;;;2.90;;
20824;SDS011;10573;50.936;6.978;2024-02-21T11:07:39;11.40;;;3.40;;
20824;SDS011;10573;50.936;6.978;2024-02-21T11:10:05;6.50;;;2.78;;
20824;SDS011;10573;50.936;6.978;2024-02-21T11:12:47;10.93;;;3.10;;
20824;SDS011;10573;50.936;6.978;2024-02-21T11:15:13;9.68;;;2.97;;
20824;SDS011;10573;50.936;6.978;2024-02-21T11:17:38;9.03;;;2.60;;
20824;SDS011;10573;50.936;6.978;2024-02-21T11:20:10;6.68;;;2.40;;
20824;SDS011;10573;50.936;6.978;2024-02-21T11:22:41;10.27;;;2.60;;
20824;SDS011;10573;50.936;6.978;2024-02-21T11:25:08;9.75;;;2.63;;
20824;SDS011;10573;50.936;6.978;2024-02-21T11:27:36;11.73;;;2.90;;
20824;SDS011;10573;50.936;6.978;2024-02-21T11:30:04;10.10;;;2.95;;
20824;SDS011;10573;50.936;6.978;2024-02-21T11:32:30;9.80;;;3.15;;
20824;SDS011;10573;50.936;6.978;2024-02-21T11:35:02;10.40;;;3.10;;
20824;SDS011;10573;50.936;6.978;2024-02-21T11:37:31;7.93;;;2.90;;
20824;SDS011;10573;50.936;6.978;2024-02-21T11:39:58;9.32;;;2.65;;
20824;SDS011;10573;50.936;6.978;2024-02-21T11:42:27;8.82;;;2.72;;
20824;SDS011;10573;50.936;6.978;2024-02-21T11:44:54;10.00;;;3.10;;
20824;SDS011;10573;50.936;6.978;2024-02-21T11:47:22;8.75;;;2.60;;
20824;SDS011;10573;50.936;6.978;2024-02-21T11:49:48;11.18;;;3.13;;
20824;SDS011;10573;50.936;6.978;2024-02-21T11:52:23;8.73;;;3.25;;
20824;SDS011;10573;50.936;6.978;2024-02-21T11:54:50;8.27;;;2.88;;
20824;SDS011;10573;50.936;6.978;2024-02-21T11:57:17;9.87;;;2.63;;
20824;SDS011;10573;50.936;6.978;2024-02-21T11:59:44;9.93;;;2.67;;
20824;SDS011;10573;50.936;6.978;2024-02-21T12:02:10;9.33;;;2.63;;
20824;SDS011;10573;50.936;6.978;2024-02-21T12:04:36;9.18;;;2.80;;
20824;SDS011;10573;50.936;6.978;2024-02-21T12:07:02;8.77;;;3.10;;
20824;SDS011;10573;50.936;6.978;2024-02-21T12:09:47;7.85;;;2.83;;
20824;SDS011;10573;50.936;6.978;2024-02-21T12:12:13;7.80;;;2.65;;
20824;SDS011;10573;50.936;6.978;2024-02-21T12:14:39;8.97;;;2.60;;
20824;SDS011;10573;50.936;6.978;2024-02-21T12:17:05;10.20;;;3.13;;
20824;SDS011;10573;50.936;6.978;2024-02-21T12:19:31;7.10;;;2.63;;
20824;SDS011;10573;50.936;6.978;2024-02-21T12:21:58;9.35;;;2.60;;
20824;SDS011;10573;50.936;6.978;2024-02-21T12:24:25;8.90;;;2.90;;
20824;SDS011;10573;50.936;6.978;2024-02-21T12:26:52;12.07;;;2.63;;
20824;SDS011;10573;50.936;6.978;2024-02-21T12:29:21;10.68;;;3.33;;
20824;SDS011;10573;50.936;6.978;2024-02-21T12:31:48;5.85;;;2.50;;
20824;SDS011;10573;50.936;6.978;2024-02-21T12:34:15;5.30;;;2.35;;
20824;SDS011;10573;50.936;6.978;2024-02-21T12:36:41;7.07;;;2.57;;
20824;SDS011;10573;50.936;6.978;2024-02-21T12:39:13;9.07;;;2.47;;
20824;SDS011;10573;50.936;6.978;2024-02-21T12:41:39;8.27;;;2.70;;
20824;SDS011;10573;50.936;6.978;2024-02-21T12:44:06;7.88;;;2.90;;
20824;SDS011;10573;50.936;6.978;2024-02-21T12:46:32;7.68;;;3.20;;
20824;SDS011;10573;50.936;6.978;2024-02-21T12:48:58;9.68;;;3.00;;
20824;SDS011;10573;50.936;6.978;2024-02-21T12:51:24;12.23;;;2.97;;
20824;SDS011;10573;50.936;6.978;2024-02-21T12:53:49;8.07;;;3.00;;
20824;SDS011;10573;50.936;6.978;2024-02-21T12:56:15;7.67;;;2.63;;
20824;SDS011;10573;50.936;6.978;2024-02-21T12:58:41;7.90;;;2.60;;
20824;SDS011;10573;50.936;6.978;2024-02-21T13:01:06;9.73;;;3.10;;
20824;SDS011;10573;50.936;6.978;2024-02-21T13:03:32;7.75;;;2.83;;
20824;SDS011;10573;50.936;6.978;2024-02-21T13:05:57;6.47;;;2.47;;
20824;SDS011;10573;50.936;6.978;2024-02-21T13:08:24;7.18;;;2.40;;
20824;SDS011;10573;50.936;6.978;2024-02-21T13:10:50;7.82;;;2.58;;
20824;SDS011;10573;50.936;6.978;2024-02-21T13:13:15;7.35;;;2.30;;
20824;SDS011;10573;50.936;6.978;2024-02-21T13:15:41;6.75;;;2.60;;
20824;SDS011;10573;50.936;6.978;2024-02-21T13:18:08;9.23;;;2.67;;
20824;SDS011;10573;50.936;6.978;2024-02-21T13:20:33;6.57;;;2.50;;
20824;SDS011;10573;50.936;6.978;2024-02-21T13:22:59;7.82;;;2.60;;
20824;SDS011;10573;50.936;6.978;2024-02-21T13:25:24;8.33;;;3.23;;
20824;SDS011;10573;50.936;6.978;2024-02-21T13:27:50;10.13;;;2.83;;
20824;SDS011;10573;50.936;6.978;2024-02-21T13:30:15;7.10;;;2.60;;
20824;SDS011;10573;50.936;6.978;2024-02-21T13:32:41;6.50;;;2.38;;
20824;SDS011;10573;50.936;6.978;2024-02-21T13:35:08;6.60;;;2.22;;
20824;SDS011;10573;50.936;6.978;2024-02-21T13:37:36;6.45;;;2.35;;
20824;SDS011;10573;50.936;6.978;2024-02-21T13:40:02;7.87;;;2.50;;
20824;SDS011;10573;50.936;6.978;2024-02-21T13:42:29;7.93;;;2.50;;
20824;SDS011;10573;50.936;6.978;2024-02-21T13:44:55;6.53;;;2.40;;
20824;SDS011;10573;50.936;6.978;2024-02-21T13:47:20;6.97;;;2.50;;
20824;SDS011;10573;50.936;6.978;2024-02-21T13:49:46;9.63;;;2.30;;
20824;SDS011;10573;50.936;6.978;2024-02-21T13:52:12;8.40;;;2.60;;
20824;SDS011;10573;50.936;6.978;2024-02-21T13:54:38;7.13;;;2.60;;
20824;SDS011;10573;50.936;6.978;2024-02-21T13:57:03;6.90;;;2.90;;
20824;SDS011;10573;50.936;6.978;2024-02-21T13:59:29;8.13;;;2.53;;
20824;SDS011;10573;50.936;6.978;2024-02-21T14:01:55;8.70;;;2.73;;
20824;SDS011;10573;50.936;6.978;2024-02-21T14:04:21;9.10;;;2.20;;
20824;SDS011;10573;50.936;6.978;2024-02-21T14:06:46;6.75;;;2.20;;
20824;SDS011;10573;50.936;6.978;2024-02-21T14:09:12;6.47;;;2.60;;
20824;SDS011;10573;50.936;6.978;2024-02-21T14:11:38;8.55;;;2.45;;
20824;SDS011;10573;50.936;6.978;2024-02-21T14:14:05;6.65;;;2.45;;
20824;SDS011;10573;50.936;6.978;2024-02-21T14:16:30;6.32;;;2.42;;
20824;SDS011;10573;50.936;6.978;2024-02-21T14:18:56;10.33;;;2.60;;
20824;SDS011;10573;50.936;6.978;2024-02-21T14:21:21;10.67;;;2.70;;
20824;SDS011;10573;50.936;6.978;2024-02-21T14:23:48;5.37;;;2.30;;
20824;SDS011;10573;50.936;6.978;2024-02-21T14:26:13;7.05;;;2.83;;
20824;SDS011;10573;50.936;6.978;2024-02-21T14:28:39;5.63;;;2.33;;
20824;SDS011;10573;50.936;6.978;2024-02-21T14:31:05;8.85;;;2.72;;
20824;SDS011;10573;50.936;6.978;2024-02-21T14:33:34;7.85;;;2.20;;
20824;SDS011;10573;50.936;6.978;2024-02-21T14:36:00;7.72;;;2.42;;
20824;SDS011;10573;50.936;6.978;2024-02-21T14:38:25;8.60;;;2.43;;
20824;SDS011;10573;50.936;6.978;2024-02-21T14:40:50;5.73;;;2.10;;
20824;SDS011;10573;50.936;6.978;2024-02-21T14:43:16;6.83;;;2.03;;